createdAt,value
2019-02-28T00:00:13.784Z,996.02
2019-02-28T00:00:52.782Z,996.00
2019-02-28T00:01:52.751Z,995.96
2019-02-28T00:02:53.858Z,995.97
2019-02-28T00:03:52.726Z,995.93
2019-02-28T00:04:52.693Z,995.92
2019-02-28T00:06:13.678Z,995.93
2019-02-28T00:06:52.667Z,995.88
2019-02-28T00:07:52.691Z,995.92
2019-02-28T00:08:53.687Z,995.90
2019-02-28T00:09:52.613Z,995.88
2019-02-28T00:10:52.621Z,995.89
2019-02-28T00:12:14.414Z,995.86
2019-02-28T00:12:52.560Z,995.84
2019-02-28T00:13:55.936Z,995.84
2019-02-28T00:14:52.494Z,995.77
2019-02-28T00:15:52.480Z,995.80
2019-02-28T00:16:52.473Z,995.78
2019-02-28T00:18:15.249Z,995.76
2019-02-28T00:18:52.421Z,995.77
2019-02-28T00:19:52.395Z,995.71
2019-02-28T00:20:52.379Z,995.75
2019-02-28T00:21:52.363Z,995.69
2019-02-28T00:22:52.349Z,995.70
2019-02-28T00:24:13.346Z,995.73
2019-02-28T00:24:52.319Z,995.71
2019-02-28T00:25:52.289Z,995.66
2019-02-28T00:26:52.262Z,995.70
2019-02-28T00:27:52.809Z,995.62
2019-02-28T00:28:52.238Z,995.63
2019-02-28T00:30:13.217Z,995.65
2019-02-28T00:30:52.189Z,995.60
2019-02-28T00:31:52.194Z,995.54
2019-02-28T00:32:52.153Z,995.59
2019-02-28T00:33:52.148Z,995.57
2019-02-28T00:34:52.130Z,995.59
2019-02-28T00:36:13.115Z,995.61
2019-02-28T00:36:53.445Z,995.59
2019-02-28T00:37:52.069Z,995.57
2019-02-28T00:38:52.045Z,995.65
2019-02-28T00:39:52.029Z,995.59
2019-02-28T00:40:52.003Z,995.57
2019-02-28T00:42:17.428Z,995.58
2019-02-28T00:42:51.968Z,995.59
2019-02-28T00:43:51.959Z,995.58
2019-02-28T00:44:51.939Z,995.58
2019-02-28T00:45:51.927Z,995.55
2019-02-28T00:46:51.895Z,995.56
2019-02-28T00:48:12.887Z,995.57
2019-02-28T00:48:52.956Z,995.56
2019-02-28T00:49:51.856Z,995.55
2019-02-28T00:50:51.827Z,995.56
2019-02-28T00:51:51.809Z,995.51
2019-02-28T00:52:51.794Z,995.53
2019-02-28T00:54:12.776Z,995.51
2019-02-28T00:54:51.768Z,995.53
2019-02-28T00:55:51.735Z,995.51
2019-02-28T00:56:52.593Z,995.50
2019-02-28T00:57:51.707Z,995.52
2019-02-28T00:58:51.689Z,995.45
2019-02-28T01:00:12.674Z,995.46
2019-02-28T01:00:51.667Z,995.43
2019-02-28T01:01:51.648Z,995.47
2019-02-28T01:02:53.263Z,995.44
2019-02-28T01:03:51.594Z,995.43
2019-02-28T01:04:51.621Z,995.45
2019-02-28T01:06:12.571Z,995.47
2019-02-28T01:06:51.568Z,995.46
2019-02-28T01:07:51.543Z,995.45
2019-02-28T01:08:53.009Z,995.41
2019-02-28T01:09:51.506Z,995.40
2019-02-28T01:10:51.479Z,995.41
2019-02-28T01:12:18.691Z,995.40
2019-02-28T01:12:54.381Z,995.42
2019-02-28T01:13:51.425Z,995.42
2019-02-28T01:14:51.421Z,995.41
2019-02-28T01:15:51.397Z,995.41
2019-02-28T01:16:53.083Z,995.38
2019-02-28T01:18:12.359Z,995.41
2019-02-28T01:18:51.341Z,995.40
2019-02-28T01:19:51.369Z,995.39
2019-02-28T01:20:51.312Z,995.34
2019-02-28T01:21:51.290Z,995.32
2019-02-28T01:22:51.277Z,995.36
2019-02-28T01:24:12.259Z,995.29
2019-02-28T01:24:51.988Z,995.32
2019-02-28T01:25:51.215Z,995.32
2019-02-28T01:26:51.200Z,995.26
2019-02-28T01:27:52.449Z,995.28
2019-02-28T01:28:51.170Z,995.28
2019-02-28T01:30:12.150Z,995.28
2019-02-28T01:30:51.150Z,995.24
2019-02-28T01:31:51.118Z,995.25
2019-02-28T01:32:51.182Z,995.24
2019-02-28T01:33:51.078Z,995.22
2019-02-28T01:34:51.077Z,995.23
2019-02-28T01:36:12.291Z,995.23
2019-02-28T01:36:51.037Z,995.18
2019-02-28T01:37:52.395Z,995.23
2019-02-28T01:38:50.991Z,995.17
2019-02-28T01:39:50.978Z,995.22
2019-02-28T01:40:50.974Z,995.17
2019-02-28T01:42:11.951Z,995.18
2019-02-28T01:42:53.950Z,995.14
2019-02-28T01:43:50.914Z,995.16
2019-02-28T01:44:50.922Z,995.17
2019-02-28T01:45:50.884Z,995.17
2019-02-28T01:46:50.857Z,995.13
2019-02-28T01:48:11.848Z,995.12
2019-02-28T01:48:50.818Z,995.15
2019-02-28T01:49:51.532Z,995.12
2019-02-28T01:50:50.791Z,995.15
2019-02-28T01:51:50.798Z,995.12
2019-02-28T01:52:50.760Z,995.14
2019-02-28T01:54:11.740Z,995.09
2019-02-28T01:54:50.736Z,995.09
2019-02-28T01:55:50.702Z,995.07
2019-02-28T01:56:50.679Z,995.08
2019-02-28T01:57:50.672Z,995.03
2019-02-28T01:58:51.142Z,995.05
2019-02-28T02:00:11.634Z,994.98
2019-02-28T02:00:50.627Z,994.95
2019-02-28T02:01:50.601Z,994.94
2019-02-28T02:02:50.584Z,994.92
2019-02-28T02:03:50.567Z,994.93
2019-02-28T02:04:50.550Z,994.86
2019-02-28T02:06:11.548Z,994.88
2019-02-28T02:06:50.511Z,994.82
2019-02-28T02:07:50.483Z,994.82
2019-02-28T02:08:50.481Z,994.80
2019-02-28T02:09:50.473Z,994.79
2019-02-28T02:10:54.971Z,994.76
2019-02-28T02:12:11.436Z,994.72
2019-02-28T02:12:50.406Z,994.73
2019-02-28T02:13:50.388Z,994.73
2019-02-28T02:14:50.376Z,994.71
2019-02-28T02:15:51.408Z,994.74
2019-02-28T02:16:50.333Z,994.68
2019-02-28T02:18:11.323Z,994.75
2019-02-28T02:18:50.291Z,994.69
2019-02-28T02:19:52.194Z,994.67
2019-02-28T02:20:50.273Z,994.68
2019-02-28T02:21:50.238Z,994.70
2019-02-28T02:22:50.219Z,994.66
2019-02-28T02:24:11.215Z,994.65
2019-02-28T02:24:50.182Z,994.66
2019-02-28T02:25:50.164Z,994.63
2019-02-28T02:26:50.168Z,994.65
2019-02-28T02:27:52.954Z,994.62
2019-02-28T02:28:50.122Z,994.58
2019-02-28T02:30:15.050Z,994.59
2019-02-28T02:30:50.991Z,994.58
2019-02-28T02:31:50.069Z,994.55
2019-02-28T02:32:50.043Z,994.52
2019-02-28T02:33:52.513Z,994.52
2019-02-28T02:34:50.014Z,994.47
2019-02-28T02:36:10.982Z,994.47
2019-02-28T02:36:54.199Z,994.48
2019-02-28T02:37:49.953Z,994.47
2019-02-28T02:38:49.933Z,994.46
2019-02-28T02:39:50.448Z,994.44
2019-02-28T02:40:49.892Z,994.41
2019-02-28T02:42:11.684Z,994.41
2019-02-28T02:42:50.206Z,994.38
2019-02-28T02:43:49.872Z,994.40
2019-02-28T02:44:49.830Z,994.40
2019-02-28T02:45:49.801Z,994.35
2019-02-28T02:46:55.538Z,994.32
2019-02-28T02:48:10.765Z,994.35
2019-02-28T02:48:49.750Z,994.31
2019-02-28T02:49:55.980Z,994.32
2019-02-28T02:50:49.713Z,994.28
2019-02-28T02:51:50.780Z,994.26
2019-02-28T02:52:49.687Z,994.28
2019-02-28T02:54:17.925Z,994.26
2019-02-28T02:54:52.066Z,994.29
2019-02-28T02:55:49.624Z,994.29
2019-02-28T02:56:49.619Z,994.26
2019-02-28T02:57:51.677Z,994.26
2019-02-28T02:58:49.570Z,994.27
2019-02-28T03:00:13.667Z,994.30
2019-02-28T03:00:51.381Z,994.24
2019-02-28T03:01:49.514Z,994.26
2019-02-28T03:02:49.510Z,994.20
2019-02-28T03:03:49.485Z,994.21
2019-02-28T03:04:49.490Z,994.23
2019-02-28T03:06:13.928Z,994.20
2019-02-28T03:06:49.439Z,994.19
2019-02-28T03:07:49.419Z,994.16
2019-02-28T03:08:49.421Z,994.19
2019-02-28T03:09:49.383Z,994.18
2019-02-28T03:10:51.861Z,994.12
2019-02-28T03:12:10.345Z,994.13
2019-02-28T03:12:49.320Z,994.12
2019-02-28T03:13:49.305Z,994.13
2019-02-28T03:14:50.019Z,994.09
2019-02-28T03:15:49.267Z,994.12
2019-02-28T03:16:49.253Z,994.06
2019-02-28T03:18:10.238Z,994.01
2019-02-28T03:18:49.214Z,994.01
2019-02-28T03:19:49.208Z,994.03
2019-02-28T03:20:49.182Z,993.98
2019-02-28T03:21:52.601Z,993.99
2019-02-28T03:22:49.144Z,993.97
2019-02-28T03:24:14.853Z,993.97
2019-02-28T03:24:51.002Z,993.97
2019-02-28T03:25:49.101Z,993.96
2019-02-28T03:26:49.078Z,993.98
2019-02-28T03:27:55.110Z,993.93
2019-02-28T03:28:49.038Z,993.95
2019-02-28T03:30:10.109Z,993.92
2019-02-28T03:30:49.014Z,993.92
2019-02-28T03:31:56.812Z,993.91
2019-02-28T03:32:48.975Z,993.91
2019-02-28T03:33:48.955Z,993.88
2019-02-28T03:34:56.227Z,993.84
2019-02-28T03:36:09.923Z,993.88
2019-02-28T03:36:55.014Z,993.87
2019-02-28T03:37:48.894Z,993.81
2019-02-28T03:38:50.069Z,993.81
2019-02-28T03:39:48.858Z,993.81
2019-02-28T03:40:48.829Z,993.82
2019-02-28T03:42:09.822Z,993.82
2019-02-28T03:42:48.810Z,993.83
2019-02-28T03:43:48.795Z,993.85
2019-02-28T03:44:48.763Z,993.82
2019-02-28T03:45:48.745Z,993.85
2019-02-28T03:46:48.737Z,993.85
2019-02-28T03:48:09.711Z,993.85
2019-02-28T03:48:48.700Z,993.85
2019-02-28T03:49:50.087Z,993.83
2019-02-28T03:50:48.666Z,993.82
2019-02-28T03:51:48.659Z,993.75
2019-02-28T03:52:48.639Z,993.77
2019-02-28T03:54:09.634Z,993.74
2019-02-28T03:54:48.648Z,993.75
2019-02-28T03:55:48.595Z,993.75
2019-02-28T03:56:52.904Z,993.73
2019-02-28T03:57:48.552Z,993.69
2019-02-28T03:58:48.529Z,993.69
2019-02-28T04:00:09.548Z,993.72
2019-02-28T04:00:48.510Z,993.71
2019-02-28T04:01:48.480Z,993.70
2019-02-28T04:02:48.464Z,993.68
2019-02-28T04:03:48.434Z,993.68
2019-02-28T04:04:50.214Z,993.66
2019-02-28T04:06:09.427Z,993.67
2019-02-28T04:06:48.406Z,993.64
2019-02-28T04:07:52.481Z,993.69
2019-02-28T04:08:48.407Z,993.66
2019-02-28T04:09:48.373Z,993.71
2019-02-28T04:10:48.351Z,993.71
2019-02-28T04:12:09.356Z,993.68
2019-02-28T04:12:48.302Z,993.68
2019-02-28T04:13:48.289Z,993.67
2019-02-28T04:14:48.264Z,993.67
2019-02-28T04:16:07.812Z,993.65
2019-02-28T04:16:52.697Z,993.69
2019-02-28T04:18:09.214Z,993.69
2019-02-28T04:18:48.198Z,993.66
2019-02-28T04:19:48.175Z,993.70
2019-02-28T04:20:48.162Z,993.69
2019-02-28T04:21:48.167Z,993.63
2019-02-28T04:22:48.132Z,993.66
2019-02-28T04:25:07.724Z,993.62
2019-02-28T04:26:07.574Z,993.65
2019-02-28T04:27:07.907Z,993.66
2019-02-28T04:28:07.487Z,993.66
2019-02-28T04:29:07.451Z,993.67
2019-02-28T04:30:08.437Z,993.66
2019-02-28T04:31:07.384Z,993.63
2019-02-28T04:32:07.358Z,993.66
2019-02-28T04:33:07.342Z,993.64
2019-02-28T04:34:12.996Z,993.68
2019-02-28T04:35:07.311Z,993.68
2019-02-28T04:36:07.307Z,993.70
2019-02-28T04:37:08.583Z,993.65
2019-02-28T04:38:07.248Z,993.66
2019-02-28T04:39:07.232Z,993.63
2019-02-28T04:40:07.212Z,993.62
2019-02-28T04:41:07.191Z,993.63
2019-02-28T04:42:07.194Z,993.61
2019-02-28T04:43:09.824Z,993.62
2019-02-28T04:44:07.169Z,993.61
2019-02-28T04:45:07.137Z,993.61
2019-02-28T04:46:07.734Z,993.60
2019-02-28T04:47:07.659Z,993.59
2019-02-28T04:48:07.082Z,993.66
2019-02-28T04:49:07.077Z,993.59
2019-02-28T04:50:07.039Z,993.63
2019-02-28T04:51:07.026Z,993.60
2019-02-28T04:52:07.029Z,993.60
2019-02-28T04:53:07.002Z,993.53
2019-02-28T04:54:06.974Z,993.58
2019-02-28T04:55:06.958Z,993.52
2019-02-28T04:56:11.059Z,993.53
2019-02-28T04:57:06.925Z,993.54
2019-02-28T04:58:06.978Z,993.59
2019-02-28T04:59:06.969Z,993.53
2019-02-28T05:00:06.883Z,993.54
2019-02-28T05:01:09.129Z,993.56
2019-02-28T05:02:06.841Z,993.55
2019-02-28T05:03:06.819Z,993.55
2019-02-28T05:04:06.799Z,993.57
2019-02-28T05:05:12.094Z,993.54
2019-02-28T05:06:06.771Z,993.56
2019-02-28T05:07:06.755Z,993.56
2019-02-28T05:08:06.744Z,993.57
2019-02-28T05:09:06.715Z,993.59
2019-02-28T05:10:06.690Z,993.60
2019-02-28T05:11:06.695Z,993.61
2019-02-28T05:12:06.661Z,993.61
2019-02-28T05:13:06.646Z,993.60
2019-02-28T05:14:06.634Z,993.59
2019-02-28T05:15:06.605Z,993.63
2019-02-28T05:16:09.322Z,993.64
2019-02-28T05:17:06.584Z,993.63
2019-02-28T05:18:06.549Z,993.59
2019-02-28T05:19:06.545Z,993.61
2019-02-28T05:20:07.281Z,993.60
2019-02-28T05:21:06.505Z,993.64
2019-02-28T05:22:06.487Z,993.61
2019-02-28T05:23:06.489Z,993.61
2019-02-28T05:24:07.739Z,993.59
2019-02-28T05:25:06.449Z,993.62
2019-02-28T05:26:06.417Z,993.62
2019-02-28T05:27:06.392Z,993.61
2019-02-28T05:28:07.462Z,993.62
2019-02-28T05:29:06.365Z,993.61
2019-02-28T05:30:06.347Z,993.66
2019-02-28T05:31:06.334Z,993.61
2019-02-28T05:32:06.311Z,993.67
2019-02-28T05:33:07.387Z,993.67
2019-02-28T05:34:06.288Z,993.73
2019-02-28T05:35:06.257Z,993.73
2019-02-28T05:36:06.256Z,993.69
2019-02-28T05:37:09.502Z,993.76
2019-02-28T05:38:06.212Z,993.73
2019-02-28T05:39:06.187Z,993.75
2019-02-28T05:40:06.961Z,993.75
2019-02-28T05:41:06.148Z,993.78
2019-02-28T05:42:06.144Z,993.76
2019-02-28T05:43:06.116Z,993.77
2019-02-28T05:44:07.190Z,993.77
2019-02-28T05:45:06.090Z,993.78
2019-02-28T05:46:06.066Z,993.79
2019-02-28T05:47:06.041Z,993.76
2019-02-28T05:48:06.042Z,993.81
2019-02-28T05:49:08.720Z,993.81
2019-02-28T05:50:05.994Z,993.80
2019-02-28T05:51:05.983Z,993.83
2019-02-28T05:52:05.953Z,993.84
2019-02-28T05:53:06.303Z,993.84
2019-02-28T05:54:05.925Z,993.80
2019-02-28T05:55:05.910Z,993.78
2019-02-28T05:56:05.891Z,993.80
2019-02-28T05:57:08.258Z,993.79
2019-02-28T05:58:05.861Z,993.80
2019-02-28T05:59:05.854Z,993.81
2019-02-28T06:00:05.827Z,993.84
2019-02-28T06:01:08.784Z,993.81
2019-02-28T06:02:05.784Z,993.81
2019-02-28T06:03:05.761Z,993.82
2019-02-28T06:04:05.746Z,993.80
2019-02-28T06:05:08.369Z,993.83
2019-02-28T06:06:07.934Z,993.80
2019-02-28T06:07:05.688Z,993.83
2019-02-28T06:08:05.671Z,993.83
2019-02-28T06:09:05.660Z,993.85
2019-02-28T06:10:05.644Z,993.85
2019-02-28T06:11:05.625Z,993.85
2019-02-28T06:12:06.606Z,993.85
2019-02-28T06:13:05.589Z,993.87
2019-02-28T06:14:05.567Z,993.87
2019-02-28T06:15:05.577Z,993.88
2019-02-28T06:16:11.188Z,993.88
2019-02-28T06:17:05.511Z,993.92
2019-02-28T06:18:05.501Z,993.91
2019-02-28T06:19:08.312Z,993.89
2019-02-28T06:20:05.481Z,993.93
2019-02-28T06:21:05.447Z,993.93
2019-02-28T06:22:05.422Z,993.94
2019-02-28T06:23:06.347Z,993.94
2019-02-28T06:24:05.390Z,993.93
2019-02-28T06:25:05.376Z,993.99
2019-02-28T06:26:05.372Z,993.97
2019-02-28T06:27:06.644Z,993.96
2019-02-28T06:28:05.322Z,993.97
2019-02-28T06:29:05.907Z,993.98
2019-02-28T06:30:08.075Z,994.00
2019-02-28T06:31:05.274Z,993.98
2019-02-28T06:32:05.249Z,993.97
2019-02-28T06:33:05.235Z,993.97
2019-02-28T06:34:05.590Z,994.00
2019-02-28T06:35:05.210Z,993.98
2019-02-28T06:36:05.176Z,993.99
2019-02-28T06:37:05.154Z,994.00
2019-02-28T06:38:06.759Z,993.99
2019-02-28T06:39:05.147Z,994.04
2019-02-28T06:40:05.109Z,994.03
2019-02-28T06:41:07.690Z,994.05
2019-02-28T06:42:05.070Z,994.02
2019-02-28T06:43:05.049Z,994.04
2019-02-28T06:44:05.033Z,994.09
2019-02-28T06:45:05.018Z,994.06
2019-02-28T06:46:05.005Z,994.02
2019-02-28T06:47:04.984Z,994.09
2019-02-28T06:48:04.963Z,994.04
2019-02-28T06:49:07.119Z,994.04
2019-02-28T06:50:04.932Z,994.07
2019-02-28T06:51:04.942Z,994.12
2019-02-28T06:52:04.905Z,994.11
2019-02-28T06:53:04.899Z,994.08
2019-02-28T06:54:07.899Z,994.08
2019-02-28T06:55:04.879Z,994.14
2019-02-28T06:56:04.822Z,994.10
2019-02-28T06:57:04.801Z,994.13
2019-02-28T06:58:04.791Z,994.17
2019-02-28T06:59:05.105Z,994.19
2019-02-28T07:00:04.749Z,994.25
2019-02-28T07:01:04.738Z,994.22
2019-02-28T07:02:04.712Z,994.26
2019-02-28T07:03:04.709Z,994.20
2019-02-28T07:04:04.704Z,994.26
2019-02-28T07:05:04.665Z,994.24
2019-02-28T07:06:04.650Z,994.22
2019-02-28T07:07:07.432Z,994.24
2019-02-28T07:08:04.632Z,994.26
2019-02-28T07:09:04.592Z,994.28
2019-02-28T07:10:06.193Z,994.26
2019-02-28T07:11:04.555Z,994.30
2019-02-28T07:12:04.535Z,994.27
2019-02-28T07:13:05.576Z,994.27
2019-02-28T07:14:04.503Z,994.27
2019-02-28T07:15:04.488Z,994.29
2019-02-28T07:16:04.474Z,994.30
2019-02-28T07:17:07.545Z,994.27
2019-02-28T07:18:04.437Z,994.28
2019-02-28T07:19:04.426Z,994.33
2019-02-28T07:20:04.404Z,994.34
2019-02-28T07:21:04.391Z,994.31
2019-02-28T07:22:04.368Z,994.35
2019-02-28T07:23:04.347Z,994.34
2019-02-28T07:24:04.331Z,994.37
2019-02-28T07:25:04.318Z,994.34
2019-02-28T07:26:04.295Z,994.32
2019-02-28T07:27:04.337Z,994.33
2019-02-28T07:28:04.261Z,994.34
2019-02-28T07:29:04.248Z,994.30
2019-02-28T07:30:04.231Z,994.35
2019-02-28T07:31:04.211Z,994.34
2019-02-28T07:32:04.187Z,994.34
2019-02-28T07:33:09.532Z,994.32
2019-02-28T07:34:04.159Z,994.31
2019-02-28T07:35:04.159Z,994.29
2019-02-28T07:36:05.600Z,994.34
2019-02-28T07:37:04.103Z,994.32
2019-02-28T07:38:04.127Z,994.33
2019-02-28T07:39:04.497Z,994.34
2019-02-28T07:40:04.066Z,994.35
2019-02-28T07:41:04.058Z,994.35
2019-02-28T07:42:04.041Z,994.34
2019-02-28T07:43:04.006Z,994.30
2019-02-28T07:44:03.990Z,994.29
2019-02-28T07:45:03.986Z,994.24
2019-02-28T07:46:04.456Z,994.30
2019-02-28T07:47:03.951Z,994.29
2019-02-28T07:48:03.930Z,994.30
2019-02-28T07:49:03.918Z,994.26
2019-02-28T07:50:03.891Z,994.32
2019-02-28T07:51:03.875Z,994.34
2019-02-28T07:52:03.864Z,994.36
2019-02-28T07:53:05.549Z,994.37
2019-02-28T07:54:03.817Z,994.37
2019-02-28T07:55:03.819Z,994.36
2019-02-28T07:56:07.080Z,994.35
2019-02-28T07:57:03.779Z,994.29
2019-02-28T07:58:03.760Z,994.19
2019-02-28T07:59:05.294Z,994.23
2019-02-28T08:00:03.752Z,994.20
2019-02-28T08:01:03.712Z,994.20
2019-02-28T08:02:04.072Z,994.23
2019-02-28T08:03:03.680Z,994.22
2019-02-28T08:04:03.672Z,994.23
2019-02-28T08:05:03.645Z,994.20
2019-02-28T08:06:04.855Z,994.24
2019-02-28T08:07:03.617Z,994.19
2019-02-28T08:08:03.609Z,994.16
2019-02-28T08:09:04.817Z,994.20
2019-02-28T08:10:03.579Z,994.25
2019-02-28T08:11:03.551Z,994.23
2019-02-28T08:12:03.545Z,994.18
2019-02-28T08:13:04.063Z,994.21
2019-02-28T08:14:03.497Z,994.18
2019-02-28T08:15:03.502Z,994.17
2019-02-28T08:16:03.471Z,994.16
2019-02-28T08:17:05.503Z,994.13
2019-02-28T08:18:05.684Z,994.10
2019-02-28T08:19:03.443Z,994.11
2019-02-28T08:20:03.430Z,994.13
2019-02-28T08:21:05.370Z,994.15
2019-02-28T08:22:03.389Z,994.19
2019-02-28T08:23:03.369Z,994.16
2019-02-28T08:24:05.343Z,994.24
2019-02-28T08:25:03.337Z,994.25
2019-02-28T08:26:03.315Z,994.33
2019-02-28T08:27:03.309Z,994.34
2019-02-28T08:28:03.294Z,994.38
2019-02-28T08:29:03.280Z,994.37
2019-02-28T08:30:03.278Z,994.39
2019-02-28T08:31:03.235Z,994.37
2019-02-28T08:32:06.703Z,994.36
2019-02-28T08:33:03.243Z,994.32
2019-02-28T08:34:03.200Z,994.32
2019-02-28T08:35:03.188Z,994.34
2019-02-28T08:36:05.235Z,994.36
2019-02-28T08:37:03.180Z,994.31
2019-02-28T08:38:03.142Z,994.35
2019-02-28T08:39:03.125Z,994.28
2019-02-28T08:40:03.108Z,994.25
2019-02-28T08:41:03.095Z,994.28
2019-02-28T08:42:04.690Z,994.27
2019-02-28T08:43:03.072Z,994.30
2019-02-28T08:44:03.056Z,994.25
2019-02-28T08:45:03.039Z,994.18
2019-02-28T08:46:06.345Z,994.20
2019-02-28T08:47:03.007Z,994.23
2019-02-28T08:48:02.993Z,994.16
2019-02-28T08:49:06.222Z,994.19
2019-02-28T08:50:02.973Z,994.17
2019-02-28T08:51:02.951Z,994.25
2019-02-28T08:52:05.747Z,994.17
2019-02-28T08:53:02.919Z,994.19
2019-02-28T08:54:02.910Z,994.19
2019-02-28T08:55:06.740Z,994.19
2019-02-28T08:56:02.878Z,994.12
2019-02-28T08:57:02.875Z,994.17
2019-02-28T08:58:05.974Z,994.16
2019-02-28T08:59:11.363Z,994.13
2019-02-28T09:00:02.820Z,994.18
2019-02-28T09:01:05.365Z,994.19
2019-02-28T09:02:02.792Z,994.19
2019-02-28T09:03:02.798Z,994.23
2019-02-28T09:04:04.989Z,994.20
2019-02-28T09:05:02.756Z,994.23
2019-02-28T09:06:04.193Z,994.28
2019-02-28T09:07:02.737Z,994.21
2019-02-28T09:08:02.718Z,994.25
2019-02-28T09:09:02.700Z,994.26
2019-02-28T09:10:02.689Z,994.26
2019-02-28T09:11:02.680Z,994.28
2019-02-28T09:12:02.671Z,994.32
2019-02-28T09:13:07.781Z,994.33
2019-02-28T09:14:02.635Z,994.31
2019-02-28T09:15:02.623Z,994.31
2019-02-28T09:16:04.928Z,994.26
2019-02-28T09:17:02.598Z,994.28
2019-02-28T09:18:02.586Z,994.31
2019-02-28T09:19:02.581Z,994.29
2019-02-28T09:20:02.562Z,994.26
2019-02-28T09:21:02.545Z,994.21
2019-02-28T09:22:02.533Z,994.23
2019-02-28T09:23:03.249Z,994.15
2019-02-28T09:24:02.528Z,994.18
2019-02-28T09:25:02.493Z,994.22
2019-02-28T09:26:03.487Z,994.21
2019-02-28T09:27:04.101Z,994.26
2019-02-28T09:28:02.455Z,994.30
2019-02-28T09:29:02.443Z,994.31
2019-02-28T09:30:02.425Z,994.37
2019-02-28T09:31:05.103Z,994.37
2019-02-28T09:32:02.407Z,994.31
2019-02-28T09:33:02.392Z,994.35
2019-02-28T09:34:02.377Z,994.46
2019-02-28T09:35:05.480Z,994.47
2019-02-28T09:36:02.348Z,994.43
2019-02-28T09:37:02.345Z,994.40
2019-02-28T09:38:06.290Z,994.39
2019-02-28T09:39:02.322Z,994.40
2019-02-28T09:40:02.302Z,994.32
2019-02-28T09:41:04.502Z,994.32
2019-02-28T09:42:02.296Z,994.28
2019-02-28T09:43:02.265Z,994.28
2019-02-28T09:44:02.257Z,994.22
2019-02-28T09:45:06.410Z,994.28
2019-02-28T09:46:02.228Z,994.26
2019-02-28T09:47:02.218Z,994.27
2019-02-28T09:48:02.405Z,994.28
2019-02-28T09:49:02.193Z,994.28
2019-02-28T09:50:02.184Z,994.27
2019-02-28T09:51:02.168Z,994.30
2019-02-28T09:52:03.261Z,994.39
2019-02-28T09:53:02.163Z,994.42
2019-02-28T09:54:02.135Z,994.47
2019-02-28T09:55:02.129Z,994.39
2019-02-28T09:56:02.110Z,994.38
2019-02-28T09:57:02.099Z,994.41
2019-02-28T09:58:02.085Z,994.35
2019-02-28T09:59:03.124Z,994.38
2019-02-28T10:00:02.060Z,994.36
2019-02-28T10:01:02.060Z,994.33
2019-02-28T10:02:08.089Z,994.37
2019-02-28T10:03:02.030Z,994.28
2019-02-28T10:04:02.021Z,994.28
2019-02-28T10:05:02.939Z,994.27
2019-02-28T10:06:01.992Z,994.25
2019-02-28T10:07:01.984Z,994.23
2019-02-28T10:08:03.067Z,994.23
2019-02-28T10:09:01.969Z,994.24
2019-02-28T10:10:01.956Z,994.18
2019-02-28T10:11:01.940Z,994.20
2019-02-28T10:12:04.625Z,994.23
2019-02-28T10:13:01.912Z,994.26
2019-02-28T10:14:01.920Z,994.29
2019-02-28T10:15:06.976Z,994.26
2019-02-28T10:16:01.889Z,994.21
2019-02-28T10:17:01.870Z,994.17
2019-02-28T10:18:04.430Z,994.21
2019-02-28T10:19:01.849Z,994.22
2019-02-28T10:20:01.838Z,994.21
2019-02-28T10:21:02.653Z,994.22
2019-02-28T10:22:01.810Z,994.21
2019-02-28T10:23:01.801Z,994.25
2019-02-28T10:24:01.803Z,994.27
2019-02-28T10:25:06.134Z,994.28
2019-02-28T10:26:01.832Z,994.30
2019-02-28T10:27:03.466Z,994.29
2019-02-28T10:28:02.751Z,994.26
2019-02-28T10:29:04.501Z,994.28
2019-02-28T10:30:01.728Z,994.16
2019-02-28T10:31:01.714Z,994.13
2019-02-28T10:32:01.715Z,994.17
2019-02-28T10:33:01.701Z,994.20
2019-02-28T10:34:01.683Z,994.20
2019-02-28T10:35:02.336Z,994.18
2019-02-28T10:36:01.678Z,994.18
2019-02-28T10:37:01.653Z,994.14
2019-02-28T10:38:01.649Z,994.15
2019-02-28T10:39:02.783Z,994.13
2019-02-28T10:40:01.621Z,994.13
2019-02-28T10:41:01.670Z,994.09
2019-02-28T10:42:04.968Z,994.13
2019-02-28T10:43:01.604Z,994.14
2019-02-28T10:44:01.604Z,994.14
2019-02-28T10:45:03.671Z,994.13
2019-02-28T10:46:01.574Z,994.19
2019-02-28T10:47:01.564Z,994.16
2019-02-28T10:48:03.880Z,994.11
2019-02-28T10:49:01.540Z,994.14
2019-02-28T10:50:01.534Z,994.11
2019-02-28T10:51:12.688Z,994.06
2019-02-28T10:52:01.524Z,994.04
2019-02-28T10:53:05.429Z,994.04
2019-02-28T10:54:01.494Z,994.03
2019-02-28T10:55:01.483Z,993.91
2019-02-28T10:56:01.482Z,993.86
2019-02-28T10:57:03.029Z,993.90
2019-02-28T10:58:01.462Z,993.85
2019-02-28T10:59:01.454Z,993.87
2019-02-28T11:00:01.442Z,994.00
2019-02-28T11:01:07.670Z,994.00
2019-02-28T11:02:01.415Z,994.09
2019-02-28T11:03:01.449Z,994.07
2019-02-28T11:04:01.416Z,994.09
2019-02-28T11:05:01.416Z,994.11
2019-02-28T11:06:01.383Z,994.11
2019-02-28T11:07:02.240Z,994.06
2019-02-28T11:08:01.363Z,994.01
2019-02-28T11:09:01.352Z,994.03
2019-02-28T11:10:02.001Z,993.96
2019-02-28T11:11:01.337Z,993.93
2019-02-28T11:12:01.339Z,993.86
2019-02-28T11:13:01.334Z,993.89
2019-02-28T11:14:03.906Z,993.83
2019-02-28T11:15:01.296Z,993.81
2019-02-28T11:16:01.312Z,993.84
2019-02-28T11:17:01.293Z,993.86
2019-02-28T11:18:01.286Z,993.88
2019-02-28T11:19:01.286Z,993.81
2019-02-28T11:20:01.258Z,993.79
2019-02-28T11:21:01.252Z,993.77
2019-02-28T11:22:01.583Z,993.71
2019-02-28T11:23:01.229Z,993.70
2019-02-28T11:24:01.228Z,993.65
2019-02-28T11:25:02.145Z,993.64
2019-02-28T11:26:01.197Z,993.62
2019-02-28T11:27:01.194Z,993.66
2019-02-28T11:28:01.180Z,993.60
2019-02-28T11:29:03.132Z,993.63
2019-02-28T11:30:01.157Z,993.71
2019-02-28T11:31:01.147Z,993.67
2019-02-28T11:32:01.140Z,993.58
2019-02-28T11:33:04.535Z,993.61
2019-02-28T11:34:01.136Z,993.59
2019-02-28T11:35:01.141Z,993.62
2019-02-28T11:36:01.097Z,993.65
2019-02-28T11:37:01.133Z,993.57
2019-02-28T11:38:01.083Z,993.59
2019-02-28T11:39:01.074Z,993.60
2019-02-28T11:40:01.060Z,993.58
2019-02-28T11:41:01.054Z,993.58
2019-02-28T11:42:01.041Z,993.56
2019-02-28T11:43:02.897Z,993.44
2019-02-28T11:44:01.023Z,993.42
2019-02-28T11:45:01.013Z,993.47
2019-02-28T11:46:02.981Z,993.52
2019-02-28T11:47:00.990Z,993.43
2019-02-28T11:48:00.973Z,993.49
2019-02-28T11:49:00.967Z,993.49
2019-02-28T11:50:04.691Z,993.47
2019-02-28T11:51:00.945Z,993.46
2019-02-28T11:52:00.941Z,993.52
2019-02-28T11:53:04.878Z,993.46
2019-02-28T11:54:00.932Z,993.46
2019-02-28T11:55:00.918Z,993.43
2019-02-28T11:56:00.908Z,993.46
2019-02-28T11:57:03.016Z,993.37
2019-02-28T11:58:00.870Z,993.34
2019-02-28T11:59:00.851Z,993.36
2019-02-28T12:00:01.563Z,993.33
2019-02-28T12:01:02.225Z,993.35
2019-02-28T12:02:00.821Z,993.35
2019-02-28T12:03:01.057Z,993.29
2019-02-28T12:04:00.795Z,993.30
2019-02-28T12:05:00.782Z,993.17
2019-02-28T12:06:00.773Z,993.16
2019-02-28T12:07:00.975Z,993.16
2019-02-28T12:08:00.747Z,993.20
2019-02-28T12:09:00.730Z,993.13
2019-02-28T12:10:00.735Z,993.09
2019-02-28T12:11:01.920Z,993.11
2019-02-28T12:12:00.698Z,993.14
2019-02-28T12:13:00.709Z,993.14
2019-02-28T12:14:00.673Z,993.14
2019-02-28T12:15:02.741Z,993.17
2019-02-28T12:16:00.650Z,993.12
2019-02-28T12:17:00.665Z,993.12
2019-02-28T12:18:03.903Z,993.10
2019-02-28T12:19:00.636Z,993.10
2019-02-28T12:20:00.647Z,993.07
2019-02-28T12:21:01.733Z,993.09
2019-02-28T12:22:00.589Z,993.06
2019-02-28T12:23:00.571Z,993.06
2019-02-28T12:24:00.672Z,993.02
2019-02-28T12:25:00.559Z,992.99
2019-02-28T12:26:00.535Z,992.99
2019-02-28T12:27:00.539Z,992.94
2019-02-28T12:28:02.717Z,992.90
2019-02-28T12:29:00.554Z,992.92